Aviation Digital Data Service (ADDS)

Output produced by METARs form (0531 UTC 19 March 2019)
found at http://www.aviationweather.gov/metar/data/
 
Forecast for: KBIL (BILLINGS , MT, US)
Text: KBIL 190520Z 1906/2006 21004KT P6SM SKC
Forecast period: 0600 to 0800 UTC 19 March 2019
Forecast type: FROM: standard forecast or significant change
Winds: from the SSW (210 degrees) at 5 MPH (4 knots; 2.1 m/s)
Visibility: 6 or more miles 10+ km)
Clouds: clear skies
Weather: no significant weather forecast for this period
Text: FM190800 24009KT P6SM SKC
Forecast period: 0800 UTC 19 March 2019 to 0100 UTC 20 March 2019
Forecast type: FROM: standard forecast or significant change
Winds: from the WSW (240 degrees) at 10 MPH (9 knots; 4.6 m/s)
Visibility: 6 or more miles 10+ km)
Clouds: clear skies
Weather: no significant weather forecast for this period
Text: FM200100 23014KT P6SM SCT250
Forecast period: 0100 to 0600 UTC 20 March 2019
Forecast type: FROM: standard forecast or significant change
Winds: from the SW (230 degrees) at 16 MPH (14 knots; 7.2 m/s)
Visibility: 6 or more miles 10+ km)
Ceiling: at least 12,000 feet AGL
Clouds: scattered clouds at 25000 feet AGL
Weather: no significant weather forecast for this period